createdAt,value
2022-11-28T00:05:32.938Z,109.80
2022-11-28T00:11:58.683Z,102.97
2022-11-28T00:24:16.639Z,104.40
2022-11-28T00:30:04.560Z,91.03
2022-11-28T00:35:53.893Z,91.53
2022-11-28T00:47:59.006Z,94.27
2022-11-28T00:53:24.508Z,94.47
2022-11-28T00:58:53.416Z,101.13
2022-11-28T01:11:04.547Z,100.93
2022-11-28T01:17:03.236Z,98.97
2022-11-28T01:23:28.933Z,93.93
2022-11-28T01:35:03.837Z,101.90
2022-11-28T01:41:07.125Z,97.13
2022-11-28T01:52:50.403Z,91.50
2022-11-28T01:58:20.858Z,87.90
2022-11-28T02:10:29.193Z,93.43
2022-11-28T02:16:34.355Z,82.43
2022-11-28T02:22:38.708Z,77.57
2022-11-28T02:28:28.465Z,93.73
2022-11-28T02:33:56.744Z,98.57
2022-11-28T02:39:42.245Z,88.50
2022-11-28T02:45:24.490Z,88.23
2022-11-28T02:50:51.566Z,71.53
2022-11-28T02:56:05.979Z,84.63
2022-11-28T03:01:36.534Z,79.70
2022-11-28T03:07:33.019Z,68.17
2022-11-28T03:13:46.895Z,78.07
2022-11-28T03:19:16.664Z,70.63
2022-11-28T03:24:49.197Z,66.77
2022-11-28T03:30:05.137Z,72.07
2022-11-28T03:35:30.645Z,62.43
2022-11-28T03:41:16.037Z,71.43
2022-11-28T03:47:01.754Z,76.47
2022-11-28T03:52:55.656Z,58.17
2022-11-28T03:58:27.917Z,63.57
2022-11-28T04:04:09.609Z,62.73
2022-11-28T04:09:46.217Z,54.73
2022-11-28T04:15:44.158Z,64.67
2022-11-28T04:21:28.986Z,58.97
2022-11-28T04:26:43.187Z,58.30
2022-11-28T04:32:14.176Z,57.37
2022-11-28T04:38:03.655Z,53.73
2022-11-28T04:43:37.947Z,67.33
2022-11-28T04:48:56.544Z,58.93
2022-11-28T04:54:23.259Z,60.27
2022-11-28T04:59:47.998Z,60.07
2022-11-28T05:12:03.589Z,63.03
2022-11-28T05:16:42.253Z,48.07
2022-11-28T05:21:45.897Z,57.83
2022-11-28T05:26:49.485Z,58.23
2022-11-28T05:31:53.336Z,57.00
2022-11-28T05:36:56.864Z,60.53
2022-11-28T05:42:00.356Z,53.90
2022-11-28T05:47:03.898Z,56.40
2022-11-28T05:52:07.446Z,59.13
2022-11-28T05:57:10.565Z,67.23
2022-11-28T06:02:14.006Z,60.03
2022-11-28T06:07:19.094Z,60.60
2022-11-28T06:12:22.515Z,65.30
2022-11-28T06:17:26.045Z,61.50
2022-11-28T06:22:30.007Z,59.50
2022-11-28T06:27:36.035Z,53.60
2022-11-28T06:32:39.545Z,58.90
2022-11-28T06:37:42.913Z,63.80
2022-11-28T06:42:52.775Z,53.40
2022-11-28T06:48:05.494Z,64.87
2022-11-28T06:53:09.545Z,59.03
2022-11-28T06:58:13.624Z,60.17
2022-11-28T07:03:21.510Z,55.30
2022-11-28T07:08:25.531Z,61.27
2022-11-28T07:13:29.328Z,54.33
2022-11-28T07:18:32.692Z,61.00
2022-11-28T07:23:35.973Z,60.43
2022-11-28T07:28:39.546Z,58.30
2022-11-28T07:33:45.365Z,60.83
2022-11-28T07:38:50.636Z,56.13
2022-11-28T07:43:56.914Z,66.03
2022-11-28T07:49:00.802Z,63.63
2022-11-28T07:54:05.834Z,78.10
2022-11-28T07:59:10.596Z,72.10
2022-11-28T08:04:14.483Z,84.00
2022-11-28T08:09:17.940Z,82.53
2022-11-28T08:14:21.192Z,81.27
2022-11-28T08:19:25.007Z,82.97
2022-11-28T08:24:32.029Z,79.60
2022-11-28T08:29:51.877Z,79.03
2022-11-28T08:35:09.406Z,78.10
2022-11-28T08:40:13.387Z,72.37
2022-11-28T08:45:17.296Z,76.93
2022-11-28T08:50:20.788Z,81.13
2022-11-28T08:55:31.971Z,85.13
2022-11-28T09:00:36.494Z,80.17
2022-11-28T09:05:46.066Z,98.90
2022-11-28T09:10:49.959Z,84.33
2022-11-28T09:15:53.861Z,84.00
2022-11-28T09:21:09.895Z,96.53
2022-11-28T09:26:20.124Z,98.60
2022-11-28T09:31:23.708Z,92.47
2022-11-28T09:36:29.264Z,88.17
2022-11-28T09:41:38.938Z,104.70
2022-11-28T09:46:43.585Z,98.10
2022-11-28T09:51:59.332Z,99.67
2022-11-28T09:57:03.994Z,100.47
2022-11-28T10:02:16.546Z,91.27
2022-11-28T10:07:58.841Z,71.93
2022-11-28T10:13:19.933Z,69.97
2022-11-28T10:18:26.359Z,53.90
2022-11-28T10:23:39.242Z,58.87
2022-11-28T10:28:47.216Z,55.70
2022-11-28T10:34:12.635Z,51.87
2022-11-28T10:39:16.623Z,50.80
2022-11-28T10:44:32.725Z,49.63
2022-11-28T11:04:18.435Z,58.27
2022-11-28T11:09:22.037Z,43.70
2022-11-28T11:14:42.040Z,48.97
2022-11-28T11:19:46.057Z,61.93
2022-11-28T11:25:13.031Z,47.30
2022-11-28T12:25:46.346Z,39.60
2022-11-28T12:31:49.883Z,41.20
2022-11-28T12:38:42.533Z,44.70
2022-11-28T12:44:41.638Z,47.43
2022-11-28T12:56:54.505Z,40.23
2022-11-28T13:03:03.491Z,44.07
2022-11-28T13:08:47.937Z,39.00
2022-11-28T13:14:31.177Z,42.13
2022-11-28T13:19:46.005Z,48.37
2022-11-28T13:24:56.047Z,47.93
2022-11-28T13:30:17.086Z,44.73
2022-11-28T13:35:56.379Z,53.53
2022-11-28T13:41:52.826Z,48.87
2022-11-28T13:46:58.871Z,51.83
2022-11-28T13:52:20.845Z,44.87
2022-11-28T13:57:50.741Z,50.37
2022-11-28T14:03:00.489Z,54.23
2022-11-28T14:08:06.012Z,50.63
2022-11-28T14:13:15.054Z,53.37
2022-11-28T14:18:55.545Z,58.57
2022-11-28T14:24:28.470Z,53.00
2022-11-28T14:29:41.413Z,50.80
2022-11-28T14:34:46.872Z,52.17
2022-11-28T14:39:54.360Z,58.27
2022-11-28T14:45:08.220Z,47.57
2022-11-28T14:50:14.079Z,53.67
2022-11-28T14:55:26.255Z,45.83
2022-11-28T15:00:54.115Z,44.23
2022-11-28T15:06:09.755Z,46.03
2022-11-28T15:11:47.333Z,52.73
2022-11-28T15:16:55.068Z,61.93
2022-11-28T15:21:58.835Z,60.70
2022-11-28T15:27:08.037Z,54.77
2022-11-28T15:32:17.100Z,58.53
2022-11-28T15:37:20.614Z,48.00
2022-11-28T15:48:40.078Z,52.17
2022-11-28T15:53:44.013Z,39.73
2022-11-28T15:58:48.504Z,46.63
2022-11-28T16:04:00.315Z,45.83
2022-11-28T16:09:24.533Z,49.87
2022-11-28T16:14:36.150Z,49.83
2022-11-28T16:19:40.000Z,45.10
2022-11-28T16:24:52.940Z,46.33
2022-11-28T16:29:56.855Z,58.17
2022-11-28T16:35:03.221Z,63.73
2022-11-28T16:40:17.775Z,61.03
2022-11-28T16:45:26.003Z,55.30
2022-11-28T16:50:33.445Z,55.83
2022-11-28T16:55:41.418Z,55.13
2022-11-28T17:01:00.413Z,62.53
2022-11-28T17:06:04.684Z,54.40
2022-11-28T17:11:08.634Z,57.50
2022-11-28T17:16:37.921Z,69.57
2022-11-28T17:21:45.572Z,61.20
2022-11-28T17:26:50.956Z,60.43
2022-11-28T17:31:58.059Z,54.77
2022-11-28T17:42:33.366Z,63.33
2022-11-28T17:47:37.333Z,60.20
2022-11-28T17:52:42.214Z,66.57
2022-11-28T17:57:46.524Z,45.67
2022-11-28T18:02:51.196Z,53.93
2022-11-28T18:07:55.649Z,62.53
2022-11-28T18:13:02.935Z,57.53
2022-11-28T18:18:07.472Z,55.90
2022-11-28T18:23:14.370Z,51.93
2022-11-28T18:28:20.817Z,50.23
2022-11-28T18:33:24.780Z,54.10
2022-11-28T18:38:29.735Z,58.03
2022-11-28T18:43:39.114Z,55.60
2022-11-28T18:48:46.004Z,53.37
2022-11-28T18:53:51.445Z,48.43
2022-11-28T18:58:56.743Z,52.17
2022-11-28T19:04:08.984Z,47.07
2022-11-28T19:09:17.374Z,49.60
2022-11-28T19:14:24.174Z,56.23
2022-11-28T19:19:34.624Z,56.47
2022-11-28T19:24:41.606Z,59.00
2022-11-28T19:29:45.935Z,53.33
2022-11-28T19:34:53.876Z,70.80
2022-11-28T19:40:02.372Z,57.10
2022-11-28T19:45:10.254Z,60.10
2022-11-28T19:50:16.155Z,60.90
2022-11-28T19:55:22.614Z,56.50
2022-11-28T20:00:28.224Z,51.33
2022-11-28T20:05:33.706Z,51.07
2022-11-28T20:10:42.426Z,54.40
2022-11-28T20:15:47.425Z,51.63
2022-11-28T20:20:53.515Z,55.43
2022-11-28T20:25:58.005Z,43.77
2022-11-28T20:31:04.492Z,48.20
2022-11-28T20:36:12.204Z,60.93
2022-11-28T20:41:19.601Z,59.47
2022-11-28T20:46:29.115Z,60.37
2022-11-28T20:51:37.719Z,43.50
2022-11-28T20:57:19.117Z,48.63
2022-11-28T21:02:11.789Z,47.87
2022-11-28T21:07:17.597Z,51.33
2022-11-28T21:12:24.337Z,41.50
2022-11-28T21:17:29.495Z,52.67
2022-11-28T21:22:33.208Z,39.00
2022-11-28T21:27:37.012Z,46.53
2022-11-28T21:32:40.699Z,46.03
2022-11-28T21:37:44.337Z,45.23
2022-11-28T21:42:48.674Z,43.50
2022-11-28T21:47:53.113Z,46.17
2022-11-28T21:52:56.692Z,45.23
2022-11-28T21:57:59.932Z,51.60
2022-11-28T22:03:06.894Z,50.40
2022-11-28T22:08:12.990Z,47.90
2022-11-28T22:13:17.125Z,30.10
2022-11-28T22:18:21.175Z,47.37
2022-11-28T22:23:25.117Z,46.53
2022-11-28T22:28:28.745Z,46.57
2022-11-28T22:33:32.415Z,43.73
2022-11-28T22:38:37.127Z,48.73
2022-11-28T22:43:41.854Z,54.83
2022-11-28T22:48:45.483Z,44.33
2022-11-28T22:53:52.747Z,50.13
2022-11-28T22:58:56.472Z,45.27
2022-11-28T23:04:00.555Z,34.60
2022-11-28T23:09:07.098Z,46.27
2022-11-28T23:14:14.494Z,46.57
2022-11-28T23:19:19.843Z,51.20
2022-11-28T23:24:23.933Z,40.10
2022-11-28T23:29:27.364Z,44.87
2022-11-28T23:34:31.173Z,49.17
2022-11-28T23:39:34.664Z,47.03
2022-11-28T23:44:37.779Z,49.10
2022-11-28T23:49:41.143Z,48.97
2022-11-28T23:54:44.380Z,51.40
2022-11-28T23:59:47.996Z,52.10
